• Join FlightAware (Why Join?)
  • Login
  • US Flag 
05:58AM EDT


 

Airport Tracker/Info


-or-


 

Live Flight TrackerFlight Track Log ✈ RPA3390 ✈ 02-Dec-2013 ✈ KBNA - KPHL

Flight Track Log - Related Links

Times and Time Zones

All times are in EST time to prevent confusion due to time zone crossing. See the RPA3390 flight status page for this flight to view local times or setup timezone preferences in your user account.

Time Position Orientation Groundspeed Altitude Reporting Facility
EST Latitude Longitude Course Direction KTS MPH feet Rate Location/Type
01:21PM 36.1167 -86.6833 141° Southeast 133 153 1,400  Level Nashville TRACON
01:22PM 36.0833 -86.6500 141° Southeast 197 227 2,700 1,740 Climbing Nashville TRACON
01:23PM 36.0714 -86.6133 112° Southeast 225 259 3,900 1,020 Climbing Memphis Center
01:24PM 36.0542 -86.5242 103° East 256 295 4,400 1,980 Climbing Memphis Center
01:25PM 36.0739 -86.4258 76° East 289 333 8,000 3,060 Climbing Memphis Center
01:26PM 36.1064 -86.3314 67° East 295 339 10,800 2,160 Climbing Memphis Center
01:27PM 36.1472 -86.2194 66° East 346 398 12,500 2,220 Climbing Memphis Center
01:28PM 36.1969 -86.0822 66° East 368 423 15,400 2,340 Climbing Memphis Center
01:29PM 36.2469 -85.9628 63° Northeast 379 436 17,400 1,980 Climbing Memphis Center
01:30PM 36.3028 -85.8378 61° Northeast 400 460 19,600 2,040 Climbing Memphis Center
01:31PM 36.3744 -85.6847 60° Northeast 420 483 21,900 1,740 Climbing Indianapolis Center
01:32PM 36.4372 -85.5550 59° Northeast 433 498 23,400 1,500 Climbing Indianapolis Center
01:33PM 36.4939 -85.4144 63° Northeast 451 519 25,100 1,560 Climbing Indianapolis Center
01:34PM 36.5419 -85.2667 68° East 456 525 26,700 1,200 Climbing Indianapolis Center
01:35PM 36.5889 -85.1175 69° East 460 529 27,700 960 Climbing Indianapolis Center
01:36PM 36.6383 -84.9628 68° East 475 547 28,700 600 Climbing Indianapolis Center
01:37PM 36.6889 -84.8036 68° East 488 562 29,000 120 Climbing Indianapolis Center
01:38PM 36.7411 -84.6381 68° East 507 583 29,000  Level Indianapolis Center
01:39PM 36.7972 -84.4589 69° East 516 594 29,000  Level Indianapolis Center
01:40PM 36.8569 -84.2656 69° East 510 587 29,000  Level Indianapolis Center
01:41PM 36.9083 -84.0994 69° East 510 587 29,000  Level Indianapolis Center
01:42PM 36.9594 -83.9333 69° East 511 588 29,000  Level Indianapolis Center
01:43PM 37.0108 -83.7692 69° East 506 582 29,000  Level Indianapolis Center
01:44PM 37.0606 -83.6033 69° East 506 582 29,000  Level Indianapolis Center
01:45PM 37.1108 -83.4381 69° East 504 580 29,000  Level Indianapolis Center
01:46PM 37.1681 -83.2453 70° East 499 574 29,000  Level Indianapolis Center
01:48PM 37.2194 -83.0781 69° East 504 580 29,000  Level Indianapolis Center
01:49PM 37.2683 -82.9128 70° East 498 573 29,000  Level Indianapolis Center
01:50PM 37.3178 -82.7447 70° East 505 581 29,000  Level Indianapolis Center
01:51PM 37.3681 -82.5781 69° East 506 582 29,000  Level Indianapolis Center
01:52PM 37.4156 -82.4111 70° East 506 582 29,000  Level Indianapolis Center
01:53PM 37.4647 -82.2458 69° East 503 579 29,000  Level Indianapolis Center
01:54PM 37.5186 -82.0522 71° East 501 577 29,000  Level Indianapolis Center
01:55PM 37.5656 -81.8869 70° East 500 575 29,000  Level Indianapolis Center
01:56PM 37.6144 -81.7219 69° East 501 577 29,000  Level Indianapolis Center
01:57PM 37.6608 -81.5572 70° East 498 573 29,000  Level Indianapolis Center
01:58PM 37.7042 -81.4006 71° East 498 573 29,000  Level Indianapolis Center
01:59PM 37.7578 -81.2072 71° East 498 573 29,000  Level Indianapolis Center
02:00PM 37.7861 -81.0400 78° East 507 583 29,000  Level Indianapolis Center
02:01PM 37.7967 -80.8669 86° East 505 581 29,000  Level Indianapolis Center
02:02PM 37.8111 -80.6617 85° East 502 578 29,000  Level Indianapolis Center
02:03PM 37.8192 -80.5317 85° East 494 568 29,000  Level Washington Center
02:04PM 37.8303 -80.3586 85° East 494 568 29,000  Level Washington Center
02:05PM 37.8411 -80.1858 85° East 494 568 29,000  Level Washington Center
02:06PM 37.8519 -80.0128 85° East 494 568 29,000  Level Washington Center
02:07PM 37.8619 -79.8556 85° East 499 574 29,000  Level Washington Center
02:08PM 37.8719 -79.6825 86° East 494 568 29,000  Level Washington Center
02:09PM 37.8819 -79.5067 86° East 494 568 29,000  Level Washington Center
02:10PM 37.8917 -79.3336 86° East 494 568 29,000  Level Washington Center
02:11PM 37.9014 -79.1578 86° East 494 568 29,000  Level Washington Center
02:12PM 37.9189 -78.9847 83° East 494 568 29,000  Level Washington Center
02:13PM 37.9428 -78.7936 81° East 502 578 29,000  Level Washington Center
02:14PM 37.9619 -78.6206 82° East 502 578 29,000  Level Washington Center
02:15PM 37.9828 -78.4503 81° East 502 578 29,000  Level Washington Center
02:16PM 38.0036 -78.2772 81° East 497 572 29,000  Level Washington Center
02:17PM 38.0364 -78.1122 76° East 497 572 29,000  Level Washington Center
02:18PM 38.1103 -77.9617 58° Northeast 486 559 29,000  Level Washington Center
02:19PM 38.1839 -77.8133 58° Northeast 486 559 29,000  Level Washington Center
02:20PM 38.2575 -77.6594 59° Northeast 494 568 29,000  Level Washington Center
02:21PM 38.3311 -77.5106 58° Northeast 500 575 29,000  Level Washington Center
02:22PM 38.4083 -77.3564 57° Northeast 505 581 29,000  Level Washington Center
02:23PM 38.4772 -77.2147 58° Northeast 494 568 29,000  Level Washington Center
02:24PM 38.5456 -77.0783 57° Northeast 473 544 29,000 -1,080 Level Washington Center
02:25PM 38.6139 -76.9361 58° Northeast 467 537 26,900 -2,340 Descending Washington Center
02:26PM 38.6800 -76.7992 58° Northeast 461 531 24,500 -1,620 Descending Washington Center
02:27PM 38.7253 -76.6533 68° East 446 513 23,700 -1,200 Descending Washington Center
02:28PM 38.7556 -76.5047 75° East 434 499 22,200 -1,920 Descending Washington Center
02:29PM 38.7858 -76.3561 75° East 429 494 19,800 -2,280 Descending Washington Center
02:30PM 38.8136 -76.2150 76° East 419 482 17,700 -2,100 Descending Washington Center
02:31PM 38.8414 -76.0875 74° East 412 474 15,700 -1,380 Descending Washington Center
02:32PM 38.8689 -75.9650 74° East 389 448 15,000 -360 Descending Washington Center
02:33PM 38.8964 -75.8425 74° East 365 420 15,000  Level Washington Center
02:34PM 38.9736 -75.7597 40° Northeast 342 394 15,000 -360 Level Washington Center
02:35PM 39.0572 -75.6853 35° Northeast 342 394 14,300 -1,500 Descending Washington Center
02:37PM 39.2500 -75.6500 North 319 367 10,500 -1,680 Descending Philadelphia TRACON
02:38PM 39.3333 -75.6167 17° North 278 320 9,400 -1,500 Descending Philadelphia TRACON
02:39PM 39.3833 -75.5500 46° Northeast 277 319 7,600 -1,200 Descending Philadelphia TRACON
02:40PM 39.4167 -75.4667 63° Northeast 273 314 7,000 -420 Descending Philadelphia TRACON
02:41PM 39.4667 -75.4000 46° Northeast 271 312 6,800 -540 Descending Philadelphia TRACON
02:42PM 39.5167 -75.3333 46° Northeast 269 310 6,000 -420 Descending Philadelphia TRACON
02:43PM 39.5667 -75.2667 46° Northeast 269 310 6,000  Level Philadelphia TRACON
02:44PM 39.6333 -75.1833 44° Northeast 270 311 6,000  Level Philadelphia TRACON
02:45PM 39.6833 -75.1167 46° Northeast 271 312 6,000  Level Philadelphia TRACON
02:46PM 39.7500 -75.0500 38° Northeast 271 312 6,000  Level Philadelphia TRACON
02:47PM 39.7833 -75.0000 49° Northeast 195 224 6,000  Level Philadelphia TRACON
02:48PM 39.8167 -74.9500 49° Northeast 185 213 6,000 -540 Level Philadelphia TRACON
02:49PM 39.8500 -74.9833 322° Northwest 176 203 5,000 -1,560 Descending Philadelphia TRACON
02:50PM 39.8833 -75.0333 311° West 176 203 2,900 -1,500 Descending Philadelphia TRACON
02:51PM 39.9000 -75.1000 288° West 169 194 2,000 -780 Descending Philadelphia TRACON
02:52PM 39.9000 -75.1333 270° West 144 166 1,400 -720 Descending Philadelphia TRACON
02:53PM 39.8833 -75.1833 247° West 142 163 700 -780 Descending Philadelphia TRACON